sensor_id;sensor_type;location;lat;lon;timestamp;P1;durP1;ratioP1;P2;durP2;ratioP2
33876;SDS011;20166;51.738;7.158;2023-09-19T00:00:55;7.23;;;2.73;;
33876;SDS011;20166;51.738;7.158;2023-09-19T00:03:43;6.63;;;2.37;;
33876;SDS011;20166;51.738;7.158;2023-09-19T00:06:30;9.30;;;2.33;;
33876;SDS011;20166;51.738;7.158;2023-09-19T00:09:16;5.90;;;2.30;;
33876;SDS011;20166;51.738;7.158;2023-09-19T00:12:03;7.30;;;2.43;;
33876;SDS011;20166;51.738;7.158;2023-09-19T00:14:51;12.43;;;2.67;;
33876;SDS011;20166;51.738;7.158;2023-09-19T00:17:37;7.43;;;2.23;;
33876;SDS011;20166;51.738;7.158;2023-09-19T00:20:26;7.57;;;2.10;;
33876;SDS011;20166;51.738;7.158;2023-09-19T00:23:14;9.87;;;2.13;;
33876;SDS011;20166;51.738;7.158;2023-09-19T00:26:01;10.47;;;2.37;;
33876;SDS011;20166;51.738;7.158;2023-09-19T00:28:49;9.20;;;2.20;;
33876;SDS011;20166;51.738;7.158;2023-09-19T00:31:38;12.60;;;2.60;;
33876;SDS011;20166;51.738;7.158;2023-09-19T00:34:25;7.57;;;2.50;;
33876;SDS011;20166;51.738;7.158;2023-09-19T00:37:14;8.53;;;1.97;;
33876;SDS011;20166;51.738;7.158;2023-09-19T00:40:03;10.03;;;2.13;;
33876;SDS011;20166;51.738;7.158;2023-09-19T00:42:50;7.87;;;1.97;;
33876;SDS011;20166;51.738;7.158;2023-09-19T00:45:38;7.80;;;2.13;;
33876;SDS011;20166;51.738;7.158;2023-09-19T00:48:28;7.37;;;2.10;;
33876;SDS011;20166;51.738;7.158;2023-09-19T00:51:14;12.67;;;2.80;;
33876;SDS011;20166;51.738;7.158;2023-09-19T00:54:05;6.07;;;1.93;;
33876;SDS011;20166;51.738;7.158;2023-09-19T00:56:52;7.37;;;2.10;;
33876;SDS011;20166;51.738;7.158;2023-09-19T00:59:39;5.40;;;1.90;;
33876;SDS011;20166;51.738;7.158;2023-09-19T01:02:26;8.87;;;1.97;;
33876;SDS011;20166;51.738;7.158;2023-09-19T01:05:13;6.00;;;2.10;;
33876;SDS011;20166;51.738;7.158;2023-09-19T01:07:59;8.43;;;2.30;;
33876;SDS011;20166;51.738;7.158;2023-09-19T01:10:49;7.73;;;2.30;;
33876;SDS011;20166;51.738;7.158;2023-09-19T01:13:42;7.93;;;2.43;;
33876;SDS011;20166;51.738;7.158;2023-09-19T01:16:37;6.33;;;1.90;;
33876;SDS011;20166;51.738;7.158;2023-09-19T01:22:57;6.33;;;2.13;;
33876;SDS011;20166;51.738;7.158;2023-09-19T01:26:05;9.33;;;2.60;;
33876;SDS011;20166;51.738;7.158;2023-09-19T01:29:01;10.30;;;2.30;;
33876;SDS011;20166;51.738;7.158;2023-09-19T01:32:01;8.27;;;2.83;;
33876;SDS011;20166;51.738;7.158;2023-09-19T01:34:51;10.80;;;2.10;;
33876;SDS011;20166;51.738;7.158;2023-09-19T01:37:41;7.17;;;2.17;;
33876;SDS011;20166;51.738;7.158;2023-09-19T01:40:28;7.03;;;2.10;;
33876;SDS011;20166;51.738;7.158;2023-09-19T01:43:17;5.23;;;1.80;;
33876;SDS011;20166;51.738;7.158;2023-09-19T01:46:09;8.73;;;2.67;;
33876;SDS011;20166;51.738;7.158;2023-09-19T01:49:04;10.63;;;2.10;;
33876;SDS011;20166;51.738;7.158;2023-09-19T01:52:02;8.40;;;2.40;;
33876;SDS011;20166;51.738;7.158;2023-09-19T01:54:56;9.37;;;2.07;;
33876;SDS011;20166;51.738;7.158;2023-09-19T01:57:51;12.73;;;2.30;;
33876;SDS011;20166;51.738;7.158;2023-09-19T02:00:45;8.97;;;2.23;;
33876;SDS011;20166;51.738;7.158;2023-09-19T02:03:35;9.53;;;2.20;;
33876;SDS011;20166;51.738;7.158;2023-09-19T02:06:24;6.93;;;1.90;;
33876;SDS011;20166;51.738;7.158;2023-09-19T02:09:11;10.33;;;2.17;;
33876;SDS011;20166;51.738;7.158;2023-09-19T02:11:58;6.67;;;2.40;;
33876;SDS011;20166;51.738;7.158;2023-09-19T02:14:45;8.30;;;2.30;;
33876;SDS011;20166;51.738;7.158;2023-09-19T02:17:31;9.43;;;2.20;;
33876;SDS011;20166;51.738;7.158;2023-09-19T02:20:17;10.20;;;2.40;;
33876;SDS011;20166;51.738;7.158;2023-09-19T02:23:07;11.17;;;2.30;;
33876;SDS011;20166;51.738;7.158;2023-09-19T02:25:54;11.07;;;2.67;;
33876;SDS011;20166;51.738;7.158;2023-09-19T02:28:43;5.27;;;2.23;;
33876;SDS011;20166;51.738;7.158;2023-09-19T02:31:30;11.77;;;2.50;;
33876;SDS011;20166;51.738;7.158;2023-09-19T02:34:17;6.90;;;1.90;;
33876;SDS011;20166;51.738;7.158;2023-09-19T02:37:04;9.50;;;2.00;;
33876;SDS011;20166;51.738;7.158;2023-09-19T02:39:52;8.73;;;2.40;;
33876;SDS011;20166;51.738;7.158;2023-09-19T02:42:38;5.80;;;2.17;;
33876;SDS011;20166;51.738;7.158;2023-09-19T02:45:24;7.57;;;2.30;;
33876;SDS011;20166;51.738;7.158;2023-09-19T02:48:11;8.60;;;2.30;;
33876;SDS011;20166;51.738;7.158;2023-09-19T02:50:57;9.77;;;2.30;;
33876;SDS011;20166;51.738;7.158;2023-09-19T02:53:44;8.83;;;2.10;;
33876;SDS011;20166;51.738;7.158;2023-09-19T02:56:33;5.60;;;1.93;;
33876;SDS011;20166;51.738;7.158;2023-09-19T02:59:20;13.40;;;2.63;;
33876;SDS011;20166;51.738;7.158;2023-09-19T03:02:06;10.77;;;2.50;;
33876;SDS011;20166;51.738;7.158;2023-09-19T03:04:53;7.70;;;2.00;;
33876;SDS011;20166;51.738;7.158;2023-09-19T03:07:41;7.23;;;2.20;;
33876;SDS011;20166;51.738;7.158;2023-09-19T03:10:31;9.30;;;2.27;;
33876;SDS011;20166;51.738;7.158;2023-09-19T03:13:18;6.93;;;2.30;;
33876;SDS011;20166;51.738;7.158;2023-09-19T03:16:05;6.63;;;2.13;;
33876;SDS011;20166;51.738;7.158;2023-09-19T03:18:51;8.20;;;1.93;;
33876;SDS011;20166;51.738;7.158;2023-09-19T03:21:38;12.63;;;2.20;;
33876;SDS011;20166;51.738;7.158;2023-09-19T03:24:24;9.30;;;2.17;;
33876;SDS011;20166;51.738;7.158;2023-09-19T03:27:12;8.27;;;2.10;;
33876;SDS011;20166;51.738;7.158;2023-09-19T03:30:00;8.53;;;2.30;;
33876;SDS011;20166;51.738;7.158;2023-09-19T03:32:50;7.13;;;2.30;;
33876;SDS011;20166;51.738;7.158;2023-09-19T03:35:36;6.20;;;2.00;;
33876;SDS011;20166;51.738;7.158;2023-09-19T03:38:23;10.07;;;2.33;;
33876;SDS011;20166;51.738;7.158;2023-09-19T03:41:09;6.73;;;1.90;;
33876;SDS011;20166;51.738;7.158;2023-09-19T03:43:59;8.27;;;1.93;;
33876;SDS011;20166;51.738;7.158;2023-09-19T03:46:47;6.60;;;2.13;;
33876;SDS011;20166;51.738;7.158;2023-09-19T03:49:33;11.70;;;2.07;;
33876;SDS011;20166;51.738;7.158;2023-09-19T03:52:20;8.67;;;2.57;;
33876;SDS011;20166;51.738;7.158;2023-09-19T03:55:06;8.77;;;2.03;;
33876;SDS011;20166;51.738;7.158;2023-09-19T03:57:54;5.23;;;1.97;;
33876;SDS011;20166;51.738;7.158;2023-09-19T04:00:40;7.60;;;2.27;;
33876;SDS011;20166;51.738;7.158;2023-09-19T04:03:28;6.17;;;2.10;;
33876;SDS011;20166;51.738;7.158;2023-09-19T04:06:20;9.17;;;2.33;;
33876;SDS011;20166;51.738;7.158;2023-09-19T04:09:06;8.63;;;2.20;;
33876;SDS011;20166;51.738;7.158;2023-09-19T04:11:54;10.63;;;2.10;;
33876;SDS011;20166;51.738;7.158;2023-09-19T04:14:41;8.13;;;2.00;;
33876;SDS011;20166;51.738;7.158;2023-09-19T04:17:27;11.63;;;2.23;;
33876;SDS011;20166;51.738;7.158;2023-09-19T04:20:15;11.17;;;2.60;;
33876;SDS011;20166;51.738;7.158;2023-09-19T04:23:03;5.13;;;2.00;;
33876;SDS011;20166;51.738;7.158;2023-09-19T04:25:50;10.60;;;2.67;;
33876;SDS011;20166;51.738;7.158;2023-09-19T04:28:37;7.67;;;2.07;;
33876;SDS011;20166;51.738;7.158;2023-09-19T04:31:24;6.60;;;2.07;;
33876;SDS011;20166;51.738;7.158;2023-09-19T04:34:11;6.90;;;2.03;;
33876;SDS011;20166;51.738;7.158;2023-09-19T04:37:01;8.00;;;1.93;;
33876;SDS011;20166;51.738;7.158;2023-09-19T04:39:48;4.07;;;1.90;;
33876;SDS011;20166;51.738;7.158;2023-09-19T04:42:35;6.43;;;1.93;;
33876;SDS011;20166;51.738;7.158;2023-09-19T04:45:21;7.53;;;2.00;;
33876;SDS011;20166;51.738;7.158;2023-09-19T04:48:07;5.63;;;1.50;;
33876;SDS011;20166;51.738;7.158;2023-09-19T04:50:55;10.40;;;2.00;;
33876;SDS011;20166;51.738;7.158;2023-09-19T04:53:43;10.53;;;2.40;;
33876;SDS011;20166;51.738;7.158;2023-09-19T04:56:29;10.50;;;2.00;;
33876;SDS011;20166;51.738;7.158;2023-09-19T04:59:16;7.40;;;2.17;;
33876;SDS011;20166;51.738;7.158;2023-09-19T05:02:02;6.73;;;1.77;;
33876;SDS011;20166;51.738;7.158;2023-09-19T05:04:49;4.07;;;1.87;;
33876;SDS011;20166;51.738;7.158;2023-09-19T05:07:35;7.93;;;1.70;;
33876;SDS011;20166;51.738;7.158;2023-09-19T05:10:23;6.33;;;2.00;;
33876;SDS011;20166;51.738;7.158;2023-09-19T05:13:10;4.47;;;1.73;;
33876;SDS011;20166;51.738;7.158;2023-09-19T05:15:59;9.27;;;2.50;;
33876;SDS011;20166;51.738;7.158;2023-09-19T05:18:46;9.17;;;2.70;;
33876;SDS011;20166;51.738;7.158;2023-09-19T05:21:34;9.00;;;2.53;;
33876;SDS011;20166;51.738;7.158;2023-09-19T05:24:20;8.40;;;2.13;;
33876;SDS011;20166;51.738;7.158;2023-09-19T05:27:09;8.07;;;2.10;;
33876;SDS011;20166;51.738;7.158;2023-09-19T05:29:57;8.20;;;2.27;;
33876;SDS011;20166;51.738;7.158;2023-09-19T05:32:43;6.30;;;2.87;;
33876;SDS011;20166;51.738;7.158;2023-09-19T05:35:29;6.73;;;2.03;;
33876;SDS011;20166;51.738;7.158;2023-09-19T05:38:17;8.80;;;2.30;;
33876;SDS011;20166;51.738;7.158;2023-09-19T05:41:05;9.77;;;2.07;;
33876;SDS011;20166;51.738;7.158;2023-09-19T05:43:53;8.17;;;1.83;;
33876;SDS011;20166;51.738;7.158;2023-09-19T05:46:39;12.93;;;2.73;;
33876;SDS011;20166;51.738;7.158;2023-09-19T05:49:26;7.03;;;2.30;;
33876;SDS011;20166;51.738;7.158;2023-09-19T05:52:12;10.67;;;2.10;;
33876;SDS011;20166;51.738;7.158;2023-09-19T05:54:59;4.97;;;2.00;;
33876;SDS011;20166;51.738;7.158;2023-09-19T05:57:48;11.77;;;2.33;;
33876;SDS011;20166;51.738;7.158;2023-09-19T06:00:37;6.63;;;2.03;;
33876;SDS011;20166;51.738;7.158;2023-09-19T06:03:24;8.53;;;2.37;;
33876;SDS011;20166;51.738;7.158;2023-09-19T06:06:11;9.30;;;2.50;;
33876;SDS011;20166;51.738;7.158;2023-09-19T06:08:58;5.67;;;2.00;;
33876;SDS011;20166;51.738;7.158;2023-09-19T06:11:44;8.27;;;2.40;;
33876;SDS011;20166;51.738;7.158;2023-09-19T06:14:30;6.80;;;2.27;;
33876;SDS011;20166;51.738;7.158;2023-09-19T06:17:18;10.13;;;2.40;;
33876;SDS011;20166;51.738;7.158;2023-09-19T06:20:05;12.73;;;2.50;;
33876;SDS011;20166;51.738;7.158;2023-09-19T06:22:57;6.93;;;2.27;;
33876;SDS011;20166;51.738;7.158;2023-09-19T06:25:44;6.43;;;2.13;;
33876;SDS011;20166;51.738;7.158;2023-09-19T06:28:30;9.60;;;2.20;;
33876;SDS011;20166;51.738;7.158;2023-09-19T06:31:18;9.90;;;2.50;;
33876;SDS011;20166;51.738;7.158;2023-09-19T06:34:08;5.90;;;1.90;;
33876;SDS011;20166;51.738;7.158;2023-09-19T06:36:55;10.00;;;2.20;;
33876;SDS011;20166;51.738;7.158;2023-09-19T06:39:41;7.57;;;2.00;;
33876;SDS011;20166;51.738;7.158;2023-09-19T06:42:28;7.40;;;1.80;;
33876;SDS011;20166;51.738;7.158;2023-09-19T06:45:14;10.40;;;2.50;;
33876;SDS011;20166;51.738;7.158;2023-09-19T06:48:04;6.73;;;1.80;;
33876;SDS011;20166;51.738;7.158;2023-09-19T06:50:53;7.87;;;1.80;;
33876;SDS011;20166;51.738;7.158;2023-09-19T06:53:40;6.40;;;2.17;;
33876;SDS011;20166;51.738;7.158;2023-09-19T06:56:26;8.03;;;2.20;;
33876;SDS011;20166;51.738;7.158;2023-09-19T06:59:13;11.80;;;2.57;;
33876;SDS011;20166;51.738;7.158;2023-09-19T07:01:59;7.90;;;2.03;;
33876;SDS011;20166;51.738;7.158;2023-09-19T07:04:46;7.40;;;2.23;;
33876;SDS011;20166;51.738;7.158;2023-09-19T07:07:35;9.07;;;2.40;;
33876;SDS011;20166;51.738;7.158;2023-09-19T07:10:22;10.70;;;2.40;;
33876;SDS011;20166;51.738;7.158;2023-09-19T07:13:10;10.53;;;2.10;;
33876;SDS011;20166;51.738;7.158;2023-09-19T07:15:58;9.03;;;2.07;;
33876;SDS011;20166;51.738;7.158;2023-09-19T07:18:44;9.80;;;2.00;;
33876;SDS011;20166;51.738;7.158;2023-09-19T07:21:30;8.37;;;2.20;;
33876;SDS011;20166;51.738;7.158;2023-09-19T07:24:21;8.37;;;1.87;;
33876;SDS011;20166;51.738;7.158;2023-09-19T07:27:09;8.73;;;2.00;;
33876;SDS011;20166;51.738;7.158;2023-09-19T07:29:55;9.10;;;2.40;;
33876;SDS011;20166;51.738;7.158;2023-09-19T07:32:41;10.47;;;2.20;;
33876;SDS011;20166;51.738;7.158;2023-09-19T07:35:27;8.73;;;2.00;;
33876;SDS011;20166;51.738;7.158;2023-09-19T07:38:14;8.87;;;2.10;;
33876;SDS011;20166;51.738;7.158;2023-09-19T07:41:02;10.53;;;3.30;;
33876;SDS011;20166;51.738;7.158;2023-09-19T07:43:50;11.63;;;2.50;;
33876;SDS011;20166;51.738;7.158;2023-09-19T07:46:36;8.50;;;2.20;;
33876;SDS011;20166;51.738;7.158;2023-09-19T07:49:23;9.20;;;2.20;;
33876;SDS011;20166;51.738;7.158;2023-09-19T07:52:09;8.53;;;2.20;;
33876;SDS011;20166;51.738;7.158;2023-09-19T07:54:57;11.73;;;2.20;;
33876;SDS011;20166;51.738;7.158;2023-09-19T07:57:47;8.03;;;2.30;;
33876;SDS011;20166;51.738;7.158;2023-09-19T08:00:34;8.03;;;2.10;;
33876;SDS011;20166;51.738;7.158;2023-09-19T08:03:20;6.73;;;2.30;;
33876;SDS011;20166;51.738;7.158;2023-09-19T08:06:07;9.30;;;2.20;;
33876;SDS011;20166;51.738;7.158;2023-09-19T08:08:54;7.97;;;2.40;;
33876;SDS011;20166;51.738;7.158;2023-09-19T08:11:42;5.57;;;2.10;;
33876;SDS011;20166;51.738;7.158;2023-09-19T08:14:32;6.20;;;2.23;;
33876;SDS011;20166;51.738;7.158;2023-09-19T08:17:18;9.03;;;2.20;;
33876;SDS011;20166;51.738;7.158;2023-09-19T08:20:05;9.43;;;2.43;;
33876;SDS011;20166;51.738;7.158;2023-09-19T08:22:54;11.30;;;2.80;;
33876;SDS011;20166;51.738;7.158;2023-09-19T08:25:40;11.30;;;2.10;;
33876;SDS011;20166;51.738;7.158;2023-09-19T08:28:27;5.53;;;2.30;;
33876;SDS011;20166;51.738;7.158;2023-09-19T08:31:15;7.30;;;2.10;;
33876;SDS011;20166;51.738;7.158;2023-09-19T08:34:02;8.13;;;2.30;;
33876;SDS011;20166;51.738;7.158;2023-09-19T08:36:50;7.70;;;2.60;;
33876;SDS011;20166;51.738;7.158;2023-09-19T08:39:37;5.33;;;2.00;;
33876;SDS011;20166;51.738;7.158;2023-09-19T08:42:24;9.53;;;1.93;;
33876;SDS011;20166;51.738;7.158;2023-09-19T08:45:10;8.50;;;2.27;;
33876;SDS011;20166;51.738;7.158;2023-09-19T08:48:00;6.70;;;2.37;;
33876;SDS011;20166;51.738;7.158;2023-09-19T08:51:03;7.87;;;2.07;;
33876;SDS011;20166;51.738;7.158;2023-09-19T08:53:54;9.43;;;2.20;;
33876;SDS011;20166;51.738;7.158;2023-09-19T08:56:49;9.10;;;2.57;;
33876;SDS011;20166;51.738;7.158;2023-09-19T08:59:37;12.70;;;2.57;;
33876;SDS011;20166;51.738;7.158;2023-09-19T09:02:25;11.40;;;2.27;;
33876;SDS011;20166;51.738;7.158;2023-09-19T09:05:14;8.97;;;2.20;;
33876;SDS011;20166;51.738;7.158;2023-09-19T09:08:07;8.33;;;2.33;;
33876;SDS011;20166;51.738;7.158;2023-09-19T09:10:54;10.90;;;2.10;;
33876;SDS011;20166;51.738;7.158;2023-09-19T09:13:43;12.63;;;2.40;;
33876;SDS011;20166;51.738;7.158;2023-09-19T09:16:31;8.33;;;2.30;;
33876;SDS011;20166;51.738;7.158;2023-09-19T09:19:17;7.93;;;2.10;;
33876;SDS011;20166;51.738;7.158;2023-09-19T09:22:11;7.37;;;2.17;;
33876;SDS011;20166;51.738;7.158;2023-09-19T09:24:57;12.93;;;2.13;;
33876;SDS011;20166;51.738;7.158;2023-09-19T09:27:51;10.60;;;2.83;;
33876;SDS011;20166;51.738;7.158;2023-09-19T09:30:45;13.03;;;2.97;;
33876;SDS011;20166;51.738;7.158;2023-09-19T09:33:31;7.50;;;2.30;;
33876;SDS011;20166;51.738;7.158;2023-09-19T09:36:18;12.03;;;2.37;;
33876;SDS011;20166;51.738;7.158;2023-09-19T09:39:30;8.83;;;2.30;;
33876;SDS011;20166;51.738;7.158;2023-09-19T09:42:28;9.27;;;2.53;;
33876;SDS011;20166;51.738;7.158;2023-09-19T09:45:18;10.77;;;2.10;;
33876;SDS011;20166;51.738;7.158;2023-09-19T09:48:13;11.17;;;2.30;;
33876;SDS011;20166;51.738;7.158;2023-09-19T09:50:59;12.90;;;2.60;;
33876;SDS011;20166;51.738;7.158;2023-09-19T09:53:48;8.60;;;2.20;;
33876;SDS011;20166;51.738;7.158;2023-09-19T09:56:36;14.77;;;2.50;;
33876;SDS011;20166;51.738;7.158;2023-09-19T09:59:46;6.73;;;2.33;;
33876;SDS011;20166;51.738;7.158;2023-09-19T10:02:34;7.77;;;2.07;;
33876;SDS011;20166;51.738;7.158;2023-09-19T10:05:22;5.17;;;2.03;;
33876;SDS011;20166;51.738;7.158;2023-09-19T10:08:13;8.47;;;2.50;;
33876;SDS011;20166;51.738;7.158;2023-09-19T10:11:15;7.60;;;2.20;;
33876;SDS011;20166;51.738;7.158;2023-09-19T10:14:03;13.33;;;2.73;;
33876;SDS011;20166;51.738;7.158;2023-09-19T10:16:51;9.70;;;2.27;;
33876;SDS011;20166;51.738;7.158;2023-09-19T10:19:46;9.20;;;2.33;;
33876;SDS011;20166;51.738;7.158;2023-09-19T10:22:43;8.40;;;2.30;;
33876;SDS011;20166;51.738;7.158;2023-09-19T10:25:30;9.30;;;2.30;;
33876;SDS011;20166;51.738;7.158;2023-09-19T10:28:17;8.63;;;2.30;;
33876;SDS011;20166;51.738;7.158;2023-09-19T10:31:08;7.13;;;2.63;;
33876;SDS011;20166;51.738;7.158;2023-09-19T10:33:59;15.47;;;2.60;;
33876;SDS011;20166;51.738;7.158;2023-09-19T10:36:49;6.83;;;2.53;;
33876;SDS011;20166;51.738;7.158;2023-09-19T10:39:37;6.13;;;2.40;;
33876;SDS011;20166;51.738;7.158;2023-09-19T10:42:26;10.17;;;2.20;;
33876;SDS011;20166;51.738;7.158;2023-09-19T10:45:14;11.97;;;2.37;;
33876;SDS011;20166;51.738;7.158;2023-09-19T10:48:06;13.97;;;2.47;;
33876;SDS011;20166;51.738;7.158;2023-09-19T10:51:04;7.53;;;2.20;;
33876;SDS011;20166;51.738;7.158;2023-09-19T10:53:55;6.93;;;2.70;;
33876;SDS011;20166;51.738;7.158;2023-09-19T10:56:46;9.27;;;2.83;;
33876;SDS011;20166;51.738;7.158;2023-09-19T10:59:36;9.47;;;2.70;;
33876;SDS011;20166;51.738;7.158;2023-09-19T11:02:22;6.10;;;2.17;;
33876;SDS011;20166;51.738;7.158;2023-09-19T11:05:12;11.03;;;2.30;;
33876;SDS011;20166;51.738;7.158;2023-09-19T11:07:59;8.73;;;2.53;;
33876;SDS011;20166;51.738;7.158;2023-09-19T11:10:50;8.63;;;2.47;;
33876;SDS011;20166;51.738;7.158;2023-09-19T11:13:37;11.10;;;2.10;;
33876;SDS011;20166;51.738;7.158;2023-09-19T11:16:25;6.10;;;2.23;;
33876;SDS011;20166;51.738;7.158;2023-09-19T11:19:12;7.57;;;2.20;;
33876;SDS011;20166;51.738;7.158;2023-09-19T11:22:00;6.07;;;2.40;;
33876;SDS011;20166;51.738;7.158;2023-09-19T11:24:47;7.13;;;2.00;;
33876;SDS011;20166;51.738;7.158;2023-09-19T11:27:36;5.90;;;2.03;;
33876;SDS011;20166;51.738;7.158;2023-09-19T11:34:45;6.57;;;2.10;;
33876;SDS011;20166;51.738;7.158;2023-09-19T11:44:32;12.00;;;2.10;;
33876;SDS011;20166;51.738;7.158;2023-09-19T11:47:23;6.30;;;2.10;;
33876;SDS011;20166;51.738;7.158;2023-09-19T11:50:10;7.17;;;2.13;;
33876;SDS011;20166;51.738;7.158;2023-09-19T11:52:57;4.70;;;1.70;;
33876;SDS011;20166;51.738;7.158;2023-09-19T11:55:45;4.37;;;1.73;;
33876;SDS011;20166;51.738;7.158;2023-09-19T11:58:31;6.93;;;1.90;;
33876;SDS011;20166;51.738;7.158;2023-09-19T12:01:21;4.83;;;1.80;;
33876;SDS011;20166;51.738;7.158;2023-09-19T12:04:10;7.10;;;1.80;;
33876;SDS011;20166;51.738;7.158;2023-09-19T12:06:59;9.77;;;2.10;;
33876;SDS011;20166;51.738;7.158;2023-09-19T12:09:46;6.43;;;1.60;;
33876;SDS011;20166;51.738;7.158;2023-09-19T12:12:35;12.03;;;2.53;;
33876;SDS011;20166;51.738;7.158;2023-09-19T12:15:22;6.17;;;2.20;;
33876;SDS011;20166;51.738;7.158;2023-09-19T12:18:25;6.73;;;1.90;;
33876;SDS011;20166;51.738;7.158;2023-09-19T12:21:26;5.97;;;2.47;;
33876;SDS011;20166;51.738;7.158;2023-09-19T12:24:16;8.03;;;2.23;;
33876;SDS011;20166;51.738;7.158;2023-09-19T12:27:04;8.10;;;1.97;;
33876;SDS011;20166;51.738;7.158;2023-09-19T12:29:53;4.60;;;1.80;;
33876;SDS011;20166;51.738;7.158;2023-09-19T12:32:40;7.60;;;1.93;;
33876;SDS011;20166;51.738;7.158;2023-09-19T12:35:27;6.63;;;2.07;;
33876;SDS011;20166;51.738;7.158;2023-09-19T12:38:22;7.37;;;1.87;;
33876;SDS011;20166;51.738;7.158;2023-09-19T12:41:10;7.40;;;1.90;;
33876;SDS011;20166;51.738;7.158;2023-09-19T12:43:56;4.53;;;1.70;;
33876;SDS011;20166;51.738;7.158;2023-09-19T12:46:46;8.43;;;1.90;;
33876;SDS011;20166;51.738;7.158;2023-09-19T12:49:32;5.33;;;2.00;;
33876;SDS011;20166;51.738;7.158;2023-09-19T12:52:19;7.03;;;2.10;;
33876;SDS011;20166;51.738;7.158;2023-09-19T12:55:05;8.07;;;2.10;;
33876;SDS011;20166;51.738;7.158;2023-09-19T12:57:58;6.57;;;2.00;;
33876;SDS011;20166;51.738;7.158;2023-09-19T13:00:46;6.37;;;1.90;;
33876;SDS011;20166;51.738;7.158;2023-09-19T13:03:37;4.03;;;1.60;;
33876;SDS011;20166;51.738;7.158;2023-09-19T13:06:34;4.50;;;2.10;;
33876;SDS011;20166;51.738;7.158;2023-09-19T13:09:23;3.83;;;1.80;;
33876;SDS011;20166;51.738;7.158;2023-09-19T13:12:35;4.10;;;1.60;;
33876;SDS011;20166;51.738;7.158;2023-09-19T13:15:23;6.17;;;2.10;;
33876;SDS011;20166;51.738;7.158;2023-09-19T13:18:14;7.90;;;1.93;;
33876;SDS011;20166;51.738;7.158;2023-09-19T13:21:08;7.40;;;1.80;;
33876;SDS011;20166;51.738;7.158;2023-09-19T13:27:04;5.50;;;1.70;;
33876;SDS011;20166;51.738;7.158;2023-09-19T13:29:51;6.30;;;1.73;;
33876;SDS011;20166;51.738;7.158;2023-09-19T13:32:37;6.53;;;1.80;;
33876;SDS011;20166;51.738;7.158;2023-09-19T13:35:25;4.50;;;1.87;;
33876;SDS011;20166;51.738;7.158;2023-09-19T13:38:13;4.80;;;1.80;;
33876;SDS011;20166;51.738;7.158;2023-09-19T13:41:00;7.23;;;1.83;;
33876;SDS011;20166;51.738;7.158;2023-09-19T13:43:46;7.77;;;1.90;;
33876;SDS011;20166;51.738;7.158;2023-09-19T13:46:34;5.03;;;1.77;;
33876;SDS011;20166;51.738;7.158;2023-09-19T13:49:21;9.00;;;2.10;;
33876;SDS011;20166;51.738;7.158;2023-09-19T13:52:08;5.83;;;1.67;;
33876;SDS011;20166;51.738;7.158;2023-09-19T13:54:56;4.77;;;1.70;;
33876;SDS011;20166;51.738;7.158;2023-09-19T13:57:43;7.30;;;2.00;;
33876;SDS011;20166;51.738;7.158;2023-09-19T14:00:29;4.57;;;1.90;;
33876;SDS011;20166;51.738;7.158;2023-09-19T14:03:19;4.47;;;1.53;;
33876;SDS011;20166;51.738;7.158;2023-09-19T14:06:06;4.40;;;1.60;;
33876;SDS011;20166;51.738;7.158;2023-09-19T14:08:52;9.80;;;1.63;;
33876;SDS011;20166;51.738;7.158;2023-09-19T14:11:39;7.20;;;1.60;;
33876;SDS011;20166;51.738;7.158;2023-09-19T14:14:27;7.27;;;1.70;;
33876;SDS011;20166;51.738;7.158;2023-09-19T14:17:13;5.17;;;1.50;;
33876;SDS011;20166;51.738;7.158;2023-09-19T14:20:00;6.30;;;1.57;;
33876;SDS011;20166;51.738;7.158;2023-09-19T14:22:46;6.63;;;1.67;;
33876;SDS011;20166;51.738;7.158;2023-09-19T14:25:33;6.80;;;1.80;;
33876;SDS011;20166;51.738;7.158;2023-09-19T14:28:22;4.70;;;1.30;;
33876;SDS011;20166;51.738;7.158;2023-09-19T14:31:10;5.77;;;1.60;;
33876;SDS011;20166;51.738;7.158;2023-09-19T14:33:57;5.00;;;1.40;;
33876;SDS011;20166;51.738;7.158;2023-09-19T14:36:44;4.13;;;1.30;;
33876;SDS011;20166;51.738;7.158;2023-09-19T14:39:30;5.17;;;1.30;;
33876;SDS011;20166;51.738;7.158;2023-09-19T14:42:17;6.17;;;1.43;;
33876;SDS011;20166;51.738;7.158;2023-09-19T14:45:05;5.50;;;1.40;;
33876;SDS011;20166;51.738;7.158;2023-09-19T14:47:52;4.13;;;1.40;;
33876;SDS011;20166;51.738;7.158;2023-09-19T14:50:40;2.93;;;1.20;;
33876;SDS011;20166;51.738;7.158;2023-09-19T14:53:27;4.53;;;1.20;;
33876;SDS011;20166;51.738;7.158;2023-09-19T14:56:13;3.27;;;1.27;;
33876;SDS011;20166;51.738;7.158;2023-09-19T14:59:03;5.20;;;1.30;;
33876;SDS011;20166;51.738;7.158;2023-09-19T15:01:53;4.83;;;1.33;;
33876;SDS011;20166;51.738;7.158;2023-09-19T15:04:39;6.40;;;1.30;;
33876;SDS011;20166;51.738;7.158;2023-09-19T15:07:26;4.53;;;1.30;;
33876;SDS011;20166;51.738;7.158;2023-09-19T15:10:13;5.40;;;1.10;;
33876;SDS011;20166;51.738;7.158;2023-09-19T15:13:01;4.07;;;1.00;;
33876;SDS011;20166;51.738;7.158;2023-09-19T15:15:47;1.67;;;1.10;;
33876;SDS011;20166;51.738;7.158;2023-09-19T15:18:35;5.30;;;1.17;;
33876;SDS011;20166;51.738;7.158;2023-09-19T15:21:23;2.17;;;1.03;;
33876;SDS011;20166;51.738;7.158;2023-09-19T15:24:09;2.63;;;1.03;;
33876;SDS011;20166;51.738;7.158;2023-09-19T15:26:56;4.83;;;1.20;;
33876;SDS011;20166;51.738;7.158;2023-09-19T15:29:42;5.90;;;1.47;;
33876;SDS011;20166;51.738;7.158;2023-09-19T15:32:29;1.73;;;1.00;;
33876;SDS011;20166;51.738;7.158;2023-09-19T15:35:16;7.03;;;1.30;;
33876;SDS011;20166;51.738;7.158;2023-09-19T15:38:03;4.23;;;1.20;;
33876;SDS011;20166;51.738;7.158;2023-09-19T15:40:50;2.67;;;1.00;;
33876;SDS011;20166;51.738;7.158;2023-09-19T15:43:37;4.13;;;1.33;;
33876;SDS011;20166;51.738;7.158;2023-09-19T15:46:24;3.33;;;1.20;;
33876;SDS011;20166;51.738;7.158;2023-09-19T15:49:12;2.13;;;0.90;;
33876;SDS011;20166;51.738;7.158;2023-09-19T15:52:00;2.53;;;1.00;;
33876;SDS011;20166;51.738;7.158;2023-09-19T15:54:46;4.83;;;1.40;;
33876;SDS011;20166;51.738;7.158;2023-09-19T15:57:33;3.07;;;1.10;;
33876;SDS011;20166;51.738;7.158;2023-09-19T16:00:20;1.57;;;1.00;;
33876;SDS011;20166;51.738;7.158;2023-09-19T16:03:07;4.90;;;1.20;;
33876;SDS011;20166;51.738;7.158;2023-09-19T16:05:53;2.33;;;1.13;;
33876;SDS011;20166;51.738;7.158;2023-09-19T16:08:41;2.03;;;1.07;;
33876;SDS011;20166;51.738;7.158;2023-09-19T16:11:27;1.63;;;1.00;;
33876;SDS011;20166;51.738;7.158;2023-09-19T16:14:14;4.33;;;1.20;;
33876;SDS011;20166;51.738;7.158;2023-09-19T16:17:02;2.30;;;1.13;;
33876;SDS011;20166;51.738;7.158;2023-09-19T16:19:49;1.87;;;1.10;;
33876;SDS011;20166;51.738;7.158;2023-09-19T16:22:35;2.43;;;1.30;;
33876;SDS011;20166;51.738;7.158;2023-09-19T16:25:22;3.53;;;1.20;;
33876;SDS011;20166;51.738;7.158;2023-09-19T16:28:09;5.70;;;1.47;;
33876;SDS011;20166;51.738;7.158;2023-09-19T16:30:57;2.53;;;1.10;;
33876;SDS011;20166;51.738;7.158;2023-09-19T16:33:45;4.53;;;1.30;;
33876;SDS011;20166;51.738;7.158;2023-09-19T16:36:32;2.20;;;1.10;;
33876;SDS011;20166;51.738;7.158;2023-09-19T16:39:19;3.43;;;1.10;;
33876;SDS011;20166;51.738;7.158;2023-09-19T16:42:07;3.37;;;1.00;;
33876;SDS011;20166;51.738;7.158;2023-09-19T16:45:05;2.83;;;1.13;;
33876;SDS011;20166;51.738;7.158;2023-09-19T16:47:52;4.77;;;1.10;;
33876;SDS011;20166;51.738;7.158;2023-09-19T16:50:40;4.20;;;1.20;;
33876;SDS011;20166;51.738;7.158;2023-09-19T16:53:27;5.57;;;1.13;;
33876;SDS011;20166;51.738;7.158;2023-09-19T16:56:14;1.20;;;1.00;;
33876;SDS011;20166;51.738;7.158;2023-09-19T16:59:03;2.03;;;1.30;;
33876;SDS011;20166;51.738;7.158;2023-09-19T17:01:51;2.27;;;1.20;;
33876;SDS011;20166;51.738;7.158;2023-09-19T17:04:37;4.37;;;1.30;;
33876;SDS011;20166;51.738;7.158;2023-09-19T17:07:24;2.63;;;1.13;;
33876;SDS011;20166;51.738;7.158;2023-09-19T17:10:11;3.30;;;1.20;;